createdAt,value
2017-09-21T00:00:32.121Z,14.40
2017-09-21T00:02:59.677Z,21.33
2017-09-21T00:05:27.651Z,23.63
2017-09-21T00:07:55.224Z,16.07
2017-09-21T00:10:22.784Z,17.77
2017-09-21T00:12:50.370Z,13.50
2017-09-21T00:15:17.940Z,14.10
2017-09-21T00:17:45.966Z,15.93
2017-09-21T00:20:13.526Z,15.60
2017-09-21T00:22:41.086Z,17.63
2017-09-21T00:25:08.683Z,19.83
2017-09-21T00:27:36.383Z,16.50
2017-09-21T00:30:04.276Z,20.17
2017-09-21T00:32:31.859Z,22.47
2017-09-21T00:34:59.424Z,21.50
2017-09-21T00:37:27.954Z,15.50
2017-09-21T00:39:55.531Z,15.60
2017-09-21T00:42:23.939Z,17.80
2017-09-21T00:44:51.536Z,21.50
2017-09-21T00:47:19.100Z,21.60
2017-09-21T00:49:46.703Z,18.60
2017-09-21T00:52:14.291Z,21.73
2017-09-21T00:54:42.935Z,19.27
2017-09-21T00:57:10.517Z,19.13
2017-09-21T00:59:38.067Z,23.23
2017-09-21T01:02:05.667Z,22.60
2017-09-21T01:04:33.223Z,21.57
2017-09-21T01:07:01.077Z,18.27
2017-09-21T01:09:29.399Z,18.30
2017-09-21T01:11:56.961Z,20.47
2017-09-21T01:14:24.570Z,20.70
2017-09-21T01:16:52.140Z,19.20
2017-09-21T01:19:20.942Z,17.70
2017-09-21T01:21:48.699Z,18.80
2017-09-21T01:24:16.250Z,18.97
2017-09-21T01:26:43.852Z,22.73
2017-09-21T01:29:11.415Z,17.70
2017-09-21T01:31:39.282Z,16.10
2017-09-21T01:34:06.840Z,20.00
2017-09-21T01:36:34.405Z,26.23
2017-09-21T01:39:01.995Z,23.00
2017-09-21T01:41:29.551Z,19.57
2017-09-21T01:43:57.608Z,20.33
2017-09-21T01:46:25.305Z,19.23
2017-09-21T01:48:52.871Z,29.90
2017-09-21T01:51:20.489Z,19.40
2017-09-21T01:53:48.050Z,18.80
2017-09-21T01:56:16.123Z,20.90
2017-09-21T01:58:43.687Z,21.13
2017-09-21T02:01:11.248Z,18.07
2017-09-21T02:03:38.841Z,17.90
2017-09-21T02:06:06.402Z,20.13
2017-09-21T02:08:34.419Z,19.17
2017-09-21T02:11:01.958Z,18.53
2017-09-21T02:13:29.517Z,23.10
2017-09-21T02:15:57.099Z,18.00
2017-09-21T02:18:24.650Z,18.37
2017-09-21T02:20:52.543Z,19.50
2017-09-21T02:23:20.116Z,19.73
2017-09-21T02:28:21.525Z,27.90
2017-09-21T02:30:49.132Z,22.90
2017-09-21T02:33:17.209Z,26.70
2017-09-21T02:35:45.578Z,22.40
2017-09-21T02:38:13.173Z,22.57
2017-09-21T02:40:41.027Z,25.43
2017-09-21T02:43:09.367Z,23.63
2017-09-21T02:45:37.335Z,23.87
2017-09-21T02:48:04.886Z,24.50
2017-09-21T02:50:32.590Z,22.20
2017-09-21T02:53:00.176Z,27.63
2017-09-21T02:55:27.740Z,25.70
2017-09-21T02:57:55.651Z,23.83
2017-09-21T03:00:23.212Z,22.27
2017-09-21T03:02:50.774Z,29.77
2017-09-21T03:05:18.520Z,24.50
2017-09-21T03:07:46.126Z,26.63
2017-09-21T03:10:14.775Z,27.30
2017-09-21T03:12:42.350Z,24.33
2017-09-21T03:15:09.924Z,29.40
2017-09-21T03:17:38.276Z,27.73
2017-09-21T03:20:05.835Z,26.13
2017-09-21T03:22:33.907Z,24.27
2017-09-21T03:25:01.460Z,26.93
2017-09-21T03:27:29.022Z,22.27
2017-09-21T03:29:56.619Z,27.53
2017-09-21T03:32:24.179Z,34.67
2017-09-21T03:34:52.828Z,25.37
2017-09-21T03:37:20.411Z,29.83
2017-09-21T03:39:47.977Z,30.17
2017-09-21T03:42:16.529Z,33.67
2017-09-21T03:44:44.094Z,29.13
2017-09-21T03:47:12.151Z,29.20
2017-09-21T03:49:39.709Z,27.77
2017-09-21T03:52:07.266Z,28.43
2017-09-21T03:54:34.862Z,27.20
2017-09-21T03:57:02.445Z,28.50
2017-09-21T03:59:30.344Z,32.10
2017-09-21T04:01:57.911Z,28.67
2017-09-21T04:04:25.548Z,28.60
2017-09-21T04:06:53.165Z,27.83
2017-09-21T04:09:20.741Z,30.63
2017-09-21T04:11:49.407Z,27.00
2017-09-21T04:14:16.999Z,32.13
2017-09-21T04:16:44.559Z,29.00
2017-09-21T04:19:12.976Z,38.50
2017-09-21T04:21:40.572Z,28.27
2017-09-21T04:24:09.239Z,27.50
2017-09-21T04:26:36.815Z,27.70
2017-09-21T04:29:05.163Z,35.10
2017-09-21T04:31:33.596Z,27.83
2017-09-21T04:34:01.192Z,32.90
2017-09-21T04:36:29.294Z,27.80
2017-09-21T04:38:56.862Z,30.03
2017-09-21T04:41:24.419Z,30.97
2017-09-21T04:43:52.010Z,32.70
2017-09-21T04:46:19.626Z,34.17
2017-09-21T04:48:47.502Z,28.60
2017-09-21T04:51:16.570Z,36.37
2017-09-21T04:53:44.147Z,30.50
2017-09-21T04:56:11.751Z,31.03
2017-09-21T04:58:39.302Z,36.93
2017-09-21T05:01:08.027Z,41.73
2017-09-21T05:03:35.577Z,40.57
2017-09-21T05:06:03.152Z,34.73
2017-09-21T05:08:30.752Z,32.67
2017-09-21T05:10:59.090Z,33.80
2017-09-21T05:13:27.086Z,33.07
2017-09-21T05:15:54.650Z,37.13
2017-09-21T05:18:22.228Z,35.13
2017-09-21T05:20:50.594Z,32.77
2017-09-21T05:23:18.150Z,30.90
2017-09-21T05:25:46.211Z,34.03
2017-09-21T05:28:13.810Z,30.40
2017-09-21T05:30:42.006Z,33.43
2017-09-21T05:33:09.623Z,29.17
2017-09-21T05:35:37.947Z,30.10
2017-09-21T05:38:05.943Z,36.23
2017-09-21T05:40:33.508Z,30.87
2017-09-21T05:43:01.067Z,32.40
2017-09-21T05:45:28.787Z,40.27
2017-09-21T05:47:56.322Z,30.43
2017-09-21T05:50:24.249Z,33.50
2017-09-21T05:52:51.804Z,32.90
2017-09-21T05:55:19.359Z,34.53
2017-09-21T05:57:47.051Z,35.63
2017-09-21T06:00:14.615Z,42.10
2017-09-21T06:02:42.590Z,32.27
2017-09-21T06:05:10.925Z,35.20
2017-09-21T06:07:38.495Z,34.80
2017-09-21T06:10:06.113Z,34.47
2017-09-21T06:12:33.671Z,39.23
2017-09-21T06:15:01.564Z,34.03
2017-09-21T06:17:29.135Z,34.77
2017-09-21T06:19:56.700Z,33.70
2017-09-21T06:22:24.296Z,34.83
2017-09-21T06:24:52.623Z,30.70
2017-09-21T06:27:20.621Z,39.67
2017-09-21T06:29:48.182Z,38.37
2017-09-21T06:32:15.741Z,36.87
2017-09-21T06:34:43.346Z,39.07
2017-09-21T06:37:10.910Z,32.30
2017-09-21T06:39:38.884Z,36.50
2017-09-21T06:42:06.440Z,35.13
2017-09-21T06:44:34.084Z,31.00
2017-09-21T06:47:01.703Z,37.00
2017-09-21T06:49:29.275Z,34.60
2017-09-21T06:51:58.665Z,36.27
2017-09-21T06:54:26.242Z,42.43
2017-09-21T06:56:53.835Z,30.93
2017-09-21T06:59:21.646Z,34.80
2017-09-21T07:01:49.207Z,35.27
2017-09-21T07:04:17.182Z,39.07
2017-09-21T07:06:45.540Z,34.40
2017-09-21T07:09:13.118Z,33.90
2017-09-21T07:11:40.719Z,39.70
2017-09-21T07:14:08.278Z,38.33
2017-09-21T07:16:37.163Z,46.53
2017-09-21T07:19:05.508Z,37.73
2017-09-21T07:21:33.059Z,38.20
2017-09-21T07:24:00.646Z,41.43
2017-09-21T07:26:28.223Z,42.40
2017-09-21T07:28:57.007Z,48.37
2017-09-21T07:31:24.566Z,43.30
2017-09-21T07:33:52.897Z,41.53
2017-09-21T07:36:20.495Z,39.87
2017-09-21T07:38:49.076Z,47.37
2017-09-21T07:41:16.954Z,37.77
2017-09-21T07:43:44.555Z,37.87
2017-09-21T07:46:12.114Z,39.27
2017-09-21T07:48:39.708Z,44.50
2017-09-21T07:51:07.272Z,39.03
2017-09-21T07:53:35.336Z,41.83
2017-09-21T07:56:02.894Z,37.57
2017-09-21T07:58:30.456Z,46.20
2017-09-21T08:00:58.058Z,36.40
2017-09-21T08:03:25.617Z,41.20
2017-09-21T08:05:53.657Z,38.30
2017-09-21T08:08:21.207Z,42.70
2017-09-21T08:10:48.766Z,38.80
2017-09-21T08:13:16.362Z,40.23
2017-09-21T08:15:43.947Z,39.07
2017-09-21T08:18:11.955Z,48.97
2017-09-21T08:20:39.531Z,58.67
2017-09-21T08:23:07.115Z,38.17
2017-09-21T08:25:34.803Z,42.27
2017-09-21T08:30:36.602Z,73.07
2017-09-21T08:33:04.316Z,42.97
2017-09-21T08:35:31.906Z,46.20
2017-09-21T08:37:59.503Z,41.53
2017-09-21T08:40:27.839Z,40.80
2017-09-21T08:42:55.707Z,41.37
2017-09-21T08:45:23.277Z,39.57
2017-09-21T08:47:50.842Z,50.27
2017-09-21T08:50:18.464Z,38.40
2017-09-21T08:52:46.051Z,40.20
2017-09-21T08:55:14.067Z,41.43
2017-09-21T08:57:42.489Z,42.60
2017-09-21T09:00:10.069Z,44.50
2017-09-21T09:02:37.667Z,43.17
2017-09-21T09:05:06.007Z,43.20
2017-09-21T09:07:33.990Z,43.23
2017-09-21T09:10:01.547Z,39.87
2017-09-21T09:12:29.113Z,37.13
2017-09-21T09:14:56.705Z,41.10
2017-09-21T09:17:24.291Z,43.47
2017-09-21T09:19:52.299Z,40.93
2017-09-21T09:22:19.892Z,45.33
2017-09-21T09:24:47.477Z,38.73
2017-09-21T09:27:15.070Z,43.43
2017-09-21T09:29:42.627Z,43.40
2017-09-21T09:32:10.606Z,44.57
2017-09-21T09:34:38.154Z,42.30
2017-09-21T09:37:05.716Z,38.50
2017-09-21T09:39:33.338Z,39.57
2017-09-21T09:42:00.889Z,36.50
2017-09-21T09:44:28.942Z,40.20
2017-09-21T09:46:57.291Z,42.40
2017-09-21T09:49:24.857Z,38.77
2017-09-21T09:51:53.216Z,39.27
2017-09-21T09:54:20.787Z,37.20
2017-09-21T09:56:48.658Z,41.03
2017-09-21T09:59:16.203Z,38.30
2017-09-21T10:01:43.785Z,39.93
2017-09-21T10:04:11.404Z,25.60
2017-09-21T10:06:39.076Z,40.67
2017-09-21T10:09:07.005Z,38.83
2017-09-21T10:11:34.656Z,39.67
2017-09-21T10:14:02.998Z,25.17
2017-09-21T10:16:30.747Z,42.30
2017-09-21T10:18:58.351Z,39.20
2017-09-21T10:21:26.296Z,40.73
2017-09-21T10:23:53.855Z,42.33
2017-09-21T10:26:21.436Z,40.17
2017-09-21T10:28:49.041Z,47.43
2017-09-21T10:31:16.779Z,37.20
2017-09-21T10:33:45.430Z,40.43
2017-09-21T10:36:13.008Z,36.90
2017-09-21T10:38:40.799Z,39.30
2017-09-21T10:41:08.454Z,39.03
2017-09-21T10:43:36.133Z,37.70
2017-09-21T10:46:04.000Z,45.67
2017-09-21T10:48:31.783Z,40.37
2017-09-21T10:50:59.522Z,45.13
2017-09-21T10:53:27.181Z,43.70
2017-09-21T10:55:55.625Z,51.40
2017-09-21T10:58:23.689Z,40.30
2017-09-21T11:00:51.470Z,46.00
2017-09-21T11:03:19.022Z,45.73
2017-09-21T11:05:46.678Z,56.13
2017-09-21T11:08:14.259Z,27.53
2017-09-21T11:10:43.014Z,35.07
2017-09-21T11:13:10.598Z,34.60
2017-09-21T11:15:38.170Z,31.03
2017-09-21T11:18:06.694Z,31.00
2017-09-21T11:20:34.358Z,26.37
2017-09-21T11:23:02.361Z,32.20
2017-09-21T11:25:30.055Z,26.63
2017-09-21T11:27:58.408Z,29.83
2017-09-21T11:30:26.011Z,27.67
2017-09-21T11:32:53.563Z,29.33
2017-09-21T11:35:21.484Z,26.93
2017-09-21T11:37:49.035Z,41.00
2017-09-21T11:40:16.604Z,30.83
2017-09-21T11:42:44.195Z,31.50
2017-09-21T11:45:11.762Z,34.20
2017-09-21T11:47:40.440Z,39.93
2017-09-21T11:50:09.032Z,29.97
2017-09-21T11:52:36.635Z,39.90
2017-09-21T11:55:04.286Z,30.27
2017-09-21T11:57:31.975Z,38.30
2017-09-21T11:59:59.877Z,29.90
2017-09-21T12:02:27.446Z,23.13
2017-09-21T12:04:55.781Z,24.67
2017-09-21T12:07:24.137Z,26.90
2017-09-21T12:09:52.527Z,28.87
2017-09-21T12:12:20.510Z,29.67
2017-09-21T12:14:48.067Z,27.60
2017-09-21T12:17:15.627Z,22.53
2017-09-21T12:19:43.588Z,32.50
2017-09-21T12:22:11.159Z,28.53
2017-09-21T12:24:41.831Z,22.37
2017-09-21T12:27:09.388Z,26.83
2017-09-21T12:29:37.753Z,32.00
2017-09-21T12:32:05.369Z,28.53
2017-09-21T12:34:32.942Z,23.20
2017-09-21T12:37:00.934Z,23.87
2017-09-21T12:39:28.545Z,28.77
2017-09-21T12:41:56.115Z,24.57
2017-09-21T12:44:23.886Z,25.53
2017-09-21T12:46:51.600Z,22.20
2017-09-21T12:49:19.640Z,23.30
2017-09-21T12:51:47.212Z,23.30
2017-09-21T12:54:14.895Z,26.37
2017-09-21T12:56:43.322Z,22.07
2017-09-21T12:59:10.877Z,24.83
2017-09-21T13:01:39.693Z,17.03
2017-09-21T13:04:08.045Z,21.70
2017-09-21T13:06:35.610Z,13.20
2017-09-21T13:09:03.296Z,18.27
2017-09-21T13:11:31.718Z,12.37
2017-09-21T13:13:59.723Z,15.17
2017-09-21T13:16:27.300Z,16.77
2017-09-21T13:18:54.920Z,13.97
2017-09-21T13:21:24.234Z,15.80
2017-09-21T13:23:51.865Z,14.80
2017-09-21T13:26:19.485Z,19.37
2017-09-21T13:28:47.966Z,17.03
2017-09-21T13:31:16.640Z,19.73
2017-09-21T13:33:44.207Z,13.17
2017-09-21T13:36:11.807Z,19.90
2017-09-21T13:38:39.422Z,16.00
2017-09-21T13:41:07.090Z,18.30
2017-09-21T13:43:35.017Z,16.10
2017-09-21T13:46:02.587Z,18.17
2017-09-21T13:48:30.272Z,10.83
2017-09-21T13:50:58.396Z,9.83
2017-09-21T13:53:25.966Z,12.77
2017-09-21T13:55:54.085Z,9.90
2017-09-21T13:58:22.449Z,12.77
2017-09-21T14:00:50.047Z,14.73
2017-09-21T14:03:18.480Z,16.00
2017-09-21T14:05:46.075Z,14.70
2017-09-21T14:08:14.055Z,17.00
2017-09-21T14:10:43.208Z,15.70
2017-09-21T14:13:10.775Z,13.43
2017-09-21T14:15:38.378Z,17.13
2017-09-21T14:18:05.988Z,15.63
2017-09-21T14:20:33.966Z,17.33
2017-09-21T14:23:01.543Z,18.27
2017-09-21T14:25:29.162Z,15.97
2017-09-21T14:27:56.812Z,23.90
2017-09-21T14:30:24.352Z,17.60
2017-09-21T14:32:52.327Z,21.10
2017-09-21T14:35:19.883Z,19.93
2017-09-21T14:37:47.711Z,21.23
2017-09-21T14:40:15.370Z,15.17
2017-09-21T14:42:42.944Z,22.30
2017-09-21T14:45:11.619Z,21.07
2017-09-21T14:47:39.243Z,42.87
2017-09-21T14:50:07.053Z,33.60
2017-09-21T14:52:34.659Z,20.13
2017-09-21T14:55:03.017Z,20.87
2017-09-21T14:57:31.157Z,17.80
2017-09-21T14:59:59.490Z,17.93
2017-09-21T15:02:27.171Z,21.60
2017-09-21T15:04:54.814Z,28.47
2017-09-21T15:07:22.457Z,22.60
2017-09-21T15:09:50.505Z,20.77
2017-09-21T15:12:18.881Z,21.20
2017-09-21T15:14:46.469Z,23.73
2017-09-21T15:17:14.850Z,18.13
2017-09-21T15:19:42.439Z,22.50
2017-09-21T15:22:10.440Z,20.63
2017-09-21T15:24:38.095Z,20.90
2017-09-21T15:27:05.679Z,17.37
2017-09-21T15:29:33.295Z,22.03
2017-09-21T15:32:00.857Z,20.73
2017-09-21T15:34:28.951Z,19.33
2017-09-21T15:36:56.521Z,24.33
2017-09-21T15:39:25.736Z,15.63
2017-09-21T15:41:54.121Z,21.60
2017-09-21T15:44:21.672Z,20.73
2017-09-21T15:46:50.335Z,20.93
2017-09-21T15:49:17.964Z,23.17
2017-09-21T15:51:45.561Z,24.43
2017-09-21T15:54:13.813Z,16.90
2017-09-21T15:56:41.386Z,23.53
2017-09-21T15:59:09.256Z,17.90
2017-09-21T16:01:36.951Z,24.20
2017-09-21T16:04:05.362Z,20.60
2017-09-21T16:06:33.002Z,22.43
2017-09-21T16:09:00.563Z,17.37
2017-09-21T16:11:28.500Z,25.17
2017-09-21T16:13:56.101Z,18.73
2017-09-21T16:16:23.917Z,19.60
2017-09-21T16:18:51.834Z,23.20
2017-09-21T16:21:19.510Z,19.17
2017-09-21T16:23:47.524Z,23.07
2017-09-21T16:26:15.118Z,21.87
2017-09-21T16:28:42.721Z,22.20
2017-09-21T16:31:10.331Z,23.63
2017-09-21T16:33:37.885Z,21.53
2017-09-21T16:36:06.030Z,23.60
2017-09-21T16:38:33.633Z,19.37
2017-09-21T16:41:01.215Z,24.10
2017-09-21T16:43:28.844Z,21.30
2017-09-21T16:45:57.221Z,23.20
2017-09-21T16:48:25.146Z,20.50
2017-09-21T16:50:52.718Z,20.80
2017-09-21T16:53:21.879Z,20.27
2017-09-21T16:55:49.504Z,21.50
2017-09-21T16:58:17.079Z,16.43
2017-09-21T17:00:45.325Z,19.63
2017-09-21T17:03:13.707Z,18.13
2017-09-21T17:05:41.284Z,19.43
2017-09-21T17:08:09.650Z,19.47
2017-09-21T17:10:37.223Z,24.00
2017-09-21T17:13:06.086Z,20.30
2017-09-21T17:15:33.643Z,18.37
2017-09-21T17:18:01.229Z,20.70
2017-09-21T17:20:29.584Z,22.50
2017-09-21T17:22:57.170Z,19.10
2017-09-21T17:25:25.206Z,23.93
2017-09-21T17:27:52.806Z,21.83
2017-09-21T17:30:20.529Z,20.40
2017-09-21T17:32:48.219Z,24.53
2017-09-21T17:35:16.562Z,23.77
2017-09-21T17:37:44.696Z,21.90
2017-09-21T17:40:12.294Z,31.73
2017-09-21T17:42:39.849Z,21.97
2017-09-21T17:45:07.481Z,21.00
2017-09-21T17:47:35.935Z,21.93
2017-09-21T17:50:03.861Z,19.30
2017-09-21T17:52:31.437Z,18.80
2017-09-21T17:54:59.025Z,26.03
2017-09-21T17:57:26.643Z,20.80
2017-09-21T17:59:54.209Z,28.50
2017-09-21T18:02:22.166Z,24.53
2017-09-21T18:04:49.756Z,22.70
2017-09-21T18:07:17.387Z,20.87
2017-09-21T18:09:44.986Z,26.10
2017-09-21T18:12:13.351Z,22.30
2017-09-21T18:14:41.310Z,22.20
2017-09-21T18:17:08.882Z,38.13
2017-09-21T18:19:36.441Z,26.87
2017-09-21T18:22:04.082Z,26.70
2017-09-21T18:24:31.668Z,19.87
2017-09-21T18:27:00.700Z,25.53
2017-09-21T18:29:28.270Z,25.90
2017-09-21T18:31:55.875Z,22.00
2017-09-21T18:34:25.110Z,22.40
2017-09-21T18:36:52.916Z,19.87
2017-09-21T18:39:20.943Z,23.63
2017-09-21T18:41:48.559Z,19.07
2017-09-21T18:44:16.139Z,26.43
2017-09-21T18:46:43.886Z,23.53
2017-09-21T18:49:12.141Z,19.50
2017-09-21T18:51:40.235Z,27.17
2017-09-21T18:54:07.829Z,19.13
2017-09-21T18:56:35.412Z,20.13
2017-09-21T18:59:03.081Z,21.20
2017-09-21T19:01:30.668Z,21.57
2017-09-21T19:03:58.768Z,25.07
2017-09-21T19:06:27.150Z,21.63
2017-09-21T19:08:54.736Z,20.63
2017-09-21T19:11:22.379Z,20.57
2017-09-21T19:13:50.717Z,20.40
2017-09-21T19:16:18.711Z,19.53
2017-09-21T19:18:46.320Z,23.30
2017-09-21T19:21:14.531Z,22.50
2017-09-21T19:23:42.199Z,23.43
2017-09-21T19:26:09.783Z,24.53
2017-09-21T19:28:38.440Z,26.20
2017-09-21T19:31:06.036Z,25.70
2017-09-21T19:33:33.631Z,32.03
2017-09-21T19:36:01.460Z,38.50
2017-09-21T19:38:29.051Z,41.50
2017-09-21T19:40:57.430Z,26.07
2017-09-21T19:43:25.079Z,26.17
2017-09-21T19:45:52.703Z,35.77
2017-09-21T19:48:21.198Z,29.00
2017-09-21T19:50:49.090Z,26.73
2017-09-21T19:53:16.715Z,24.10
2017-09-21T19:55:45.032Z,25.70
2017-09-21T19:58:12.660Z,22.17
2017-09-21T20:00:41.038Z,26.00
2017-09-21T20:03:08.749Z,22.90
2017-09-21T20:05:36.334Z,25.10
2017-09-21T20:08:04.240Z,29.13
2017-09-21T20:10:31.835Z,30.43
2017-09-21T20:12:59.445Z,31.93
2017-09-21T20:15:27.872Z,27.70
2017-09-21T20:17:56.134Z,30.77
2017-09-21T20:20:24.122Z,24.73
2017-09-21T20:22:51.687Z,28.00
2017-09-21T20:25:19.266Z,23.03
2017-09-21T20:27:46.894Z,27.83
2017-09-21T20:30:14.474Z,24.43
2017-09-21T20:32:42.379Z,28.30
2017-09-21T20:35:10.704Z,33.23
2017-09-21T20:37:38.293Z,23.50
2017-09-21T20:40:05.939Z,26.07
2017-09-21T20:42:33.524Z,32.33
2017-09-21T20:45:02.659Z,26.93
2017-09-21T20:47:30.251Z,27.37
2017-09-21T20:49:57.872Z,30.10
2017-09-21T20:52:25.472Z,28.67
2017-09-21T20:54:53.059Z,31.63
2017-09-21T20:57:21.015Z,29.07
2017-09-21T20:59:48.590Z,28.00
2017-09-21T21:02:16.175Z,23.60
2017-09-21T21:04:44.535Z,23.60
2017-09-21T21:07:12.132Z,37.23
2017-09-21T21:09:39.749Z,36.60
2017-09-21T21:12:07.356Z,28.90
2017-09-21T21:14:34.974Z,30.07
2017-09-21T21:17:02.746Z,33.03
2017-09-21T21:22:05.704Z,27.07
2017-09-21T21:24:33.325Z,29.30
2017-09-21T21:27:00.917Z,29.87
2017-09-21T21:29:28.520Z,29.93
2017-09-21T21:31:56.125Z,30.80
2017-09-21T21:34:23.765Z,31.93
2017-09-21T21:36:52.160Z,28.77
2017-09-21T21:39:19.775Z,33.40
2017-09-21T21:41:47.331Z,38.97
2017-09-21T21:44:15.270Z,32.20
2017-09-21T21:46:42.900Z,32.07
2017-09-21T21:49:10.681Z,31.37
2017-09-21T21:51:38.581Z,34.17
2017-09-21T21:54:06.166Z,35.53
2017-09-21T21:56:33.736Z,33.47
2017-09-21T21:59:02.132Z,33.20
2017-09-21T22:01:29.739Z,31.87
2017-09-21T22:03:57.918Z,36.10
2017-09-21T22:06:25.459Z,32.23
2017-09-21T22:08:53.019Z,28.63
2017-09-21T22:11:20.610Z,32.13
2017-09-21T22:13:48.166Z,35.20
2017-09-21T22:16:16.224Z,30.57
2017-09-21T22:18:43.788Z,28.47
2017-09-21T22:21:11.563Z,31.00
2017-09-21T22:23:39.569Z,36.63
2017-09-21T22:26:07.127Z,36.87
2017-09-21T22:28:35.763Z,37.10
2017-09-21T22:31:03.324Z,33.13
2017-09-21T22:33:30.913Z,39.63
2017-09-21T22:35:59.301Z,33.03
2017-09-21T22:38:26.854Z,36.03
2017-09-21T22:40:55.475Z,34.10
2017-09-21T22:43:23.030Z,32.60
2017-09-21T22:45:50.590Z,33.23
2017-09-21T22:48:18.202Z,32.10
2017-09-21T22:50:45.780Z,33.27
2017-09-21T22:53:14.437Z,35.20
2017-09-21T22:55:42.008Z,29.17
2017-09-21T22:58:09.554Z,33.77
2017-09-21T23:00:50.615Z,34.50
2017-09-21T23:03:18.923Z,30.07
2017-09-21T23:05:46.906Z,33.70
2017-09-21T23:08:14.523Z,29.87
2017-09-21T23:10:42.075Z,32.67
2017-09-21T23:13:10.488Z,30.10
2017-09-21T23:15:38.058Z,33.27
2017-09-21T23:18:06.004Z,31.30
2017-09-21T23:20:33.560Z,35.37
2017-09-21T23:23:01.128Z,31.70
2017-09-21T23:25:28.724Z,32.60
2017-09-21T23:27:56.267Z,35.57
2017-09-21T23:30:24.144Z,35.20
2017-09-21T23:32:51.703Z,38.13
2017-09-21T23:35:19.251Z,35.50
2017-09-21T23:37:46.846Z,31.43
2017-09-21T23:40:14.409Z,35.93
2017-09-21T23:42:42.254Z,34.50
2017-09-21T23:45:09.816Z,32.30
2017-09-21T23:47:37.387Z,35.67
2017-09-21T23:50:04.983Z,35.87
2017-09-21T23:52:32.535Z,32.50
2017-09-21T23:55:01.180Z,31.63
2017-09-21T23:57:28.740Z,39.90
2017-09-21T23:59:56.290Z,36.00
